createdAt,value
2017-09-26T00:00:10.576Z,0
2017-09-26T00:00:51.221Z,0
2017-09-26T00:01:31.741Z,0
2017-09-26T00:02:12.271Z,0
2017-09-26T00:02:52.812Z,0
2017-09-26T00:03:33.349Z,0
2017-09-26T00:04:13.885Z,0
2017-09-26T00:04:54.429Z,0
2017-09-26T00:05:34.963Z,0
2017-09-26T00:06:15.526Z,0
2017-09-26T00:06:56.064Z,0
2017-09-26T00:07:36.604Z,0
2017-09-26T00:08:17.126Z,0
2017-09-26T00:08:57.660Z,0
2017-09-26T00:09:38.197Z,0
2017-09-26T00:10:18.766Z,0
2017-09-26T00:10:59.358Z,0
2017-09-26T00:11:39.881Z,0
2017-09-26T00:12:20.614Z,0
2017-09-26T00:13:01.140Z,0
2017-09-26T00:13:41.747Z,0
2017-09-26T00:14:22.292Z,0
2017-09-26T00:15:02.830Z,0
2017-09-26T00:15:43.366Z,0
2017-09-26T00:16:23.912Z,0
2017-09-26T00:17:04.417Z,0
2017-09-26T00:17:44.979Z,0
2017-09-26T00:18:25.500Z,0
2017-09-26T00:19:06.019Z,0
2017-09-26T00:19:46.554Z,0
2017-09-26T00:20:27.063Z,0
2017-09-26T00:21:07.647Z,0
2017-09-26T00:21:48.169Z,0
2017-09-26T00:22:28.692Z,0
2017-09-26T00:23:09.235Z,0
2017-09-26T00:23:49.775Z,0
2017-09-26T00:24:30.328Z,0
2017-09-26T00:25:10.849Z,0
2017-09-26T00:25:51.388Z,0
2017-09-26T00:26:31.919Z,0
2017-09-26T00:27:12.461Z,0
2017-09-26T00:27:52.991Z,0
2017-09-26T00:28:33.539Z,0
2017-09-26T00:29:14.069Z,0
2017-09-26T00:29:54.619Z,0
2017-09-26T00:30:35.148Z,0
2017-09-26T00:31:15.693Z,0
2017-09-26T00:31:56.206Z,0
2017-09-26T00:32:36.733Z,0
2017-09-26T00:33:17.274Z,0
2017-09-26T00:33:57.800Z,0
2017-09-26T00:34:38.324Z,0
2017-09-26T00:35:18.855Z,0
2017-09-26T00:35:59.397Z,0
2017-09-26T00:36:39.935Z,0
2017-09-26T00:37:20.456Z,0
2017-09-26T00:38:01.011Z,0
2017-09-26T00:38:41.585Z,0
2017-09-26T00:39:22.105Z,0
2017-09-26T00:40:02.744Z,0
2017-09-26T00:40:43.268Z,0
2017-09-26T00:41:23.788Z,0
2017-09-26T00:42:04.340Z,0
2017-09-26T00:42:44.836Z,0
2017-09-26T00:43:25.363Z,0
2017-09-26T00:44:05.906Z,0
2017-09-26T00:44:46.431Z,0
2017-09-26T00:45:26.984Z,0
2017-09-26T00:46:07.556Z,0
2017-09-26T00:46:48.093Z,0
2017-09-26T00:47:28.634Z,0
2017-09-26T00:48:09.184Z,0
2017-09-26T00:48:49.696Z,0
2017-09-26T00:49:30.224Z,0
2017-09-26T00:50:10.750Z,0
2017-09-26T00:50:51.329Z,0
2017-09-26T00:51:31.854Z,0
2017-09-26T00:52:12.396Z,0
2017-09-26T00:52:53.645Z,0
2017-09-26T00:53:34.182Z,0
2017-09-26T00:54:14.972Z,0
2017-09-26T00:54:55.498Z,0
2017-09-26T00:55:36.018Z,0
2017-09-26T00:56:16.537Z,0
2017-09-26T00:56:57.073Z,0
2017-09-26T00:57:37.691Z,0
2017-09-26T00:58:18.229Z,0
2017-09-26T00:58:58.771Z,0
2017-09-26T00:59:39.311Z,0
2017-09-26T01:00:19.845Z,0
2017-09-26T01:01:00.391Z,0
2017-09-26T01:01:40.929Z,0
2017-09-26T01:02:21.446Z,0
2017-09-26T01:03:02.022Z,0
2017-09-26T01:03:42.558Z,0
2017-09-26T01:04:23.070Z,0
2017-09-26T01:05:03.606Z,0
2017-09-26T01:05:44.135Z,0
2017-09-26T01:06:24.653Z,0
2017-09-26T01:07:05.203Z,0
2017-09-26T01:07:45.731Z,0
2017-09-26T01:08:26.252Z,0
2017-09-26T01:09:06.792Z,0
2017-09-26T01:09:47.338Z,0
2017-09-26T01:10:27.864Z,0
2017-09-26T01:11:08.412Z,0
2017-09-26T01:11:48.930Z,0
2017-09-26T01:12:29.516Z,0
2017-09-26T01:13:10.053Z,0
2017-09-26T01:13:50.565Z,0
2017-09-26T01:14:31.100Z,0
2017-09-26T01:15:11.641Z,0
2017-09-26T01:15:52.203Z,0
2017-09-26T01:16:32.710Z,0
2017-09-26T01:17:13.257Z,0
2017-09-26T01:17:53.775Z,0
2017-09-26T01:18:34.314Z,0
2017-09-26T01:19:14.848Z,0
2017-09-26T01:19:55.397Z,0
2017-09-26T01:20:35.915Z,0
2017-09-26T01:21:16.449Z,0
2017-09-26T01:21:56.982Z,0
2017-09-26T01:22:37.516Z,0
2017-09-26T01:23:18.046Z,0
2017-09-26T01:23:58.561Z,0
2017-09-26T01:24:39.085Z,0
2017-09-26T01:25:19.613Z,0
2017-09-26T01:26:00.146Z,0
2017-09-26T01:26:40.675Z,0
2017-09-26T01:27:21.214Z,0
2017-09-26T01:28:01.810Z,0
2017-09-26T01:28:42.354Z,0
2017-09-26T01:29:22.873Z,0
2017-09-26T01:30:03.400Z,0
2017-09-26T01:30:43.930Z,0
2017-09-26T01:31:24.453Z,0
2017-09-26T01:32:04.994Z,0
2017-09-26T01:32:45.549Z,0
2017-09-26T01:33:26.049Z,0
2017-09-26T01:34:06.558Z,0
2017-09-26T01:34:47.060Z,0
2017-09-26T01:35:27.599Z,0
2017-09-26T01:36:08.219Z,0
2017-09-26T01:36:48.762Z,0
2017-09-26T01:37:29.300Z,0
2017-09-26T01:38:09.829Z,0
2017-09-26T01:38:50.336Z,0
2017-09-26T01:39:30.872Z,0
2017-09-26T01:40:11.408Z,0
2017-09-26T01:40:51.929Z,0
2017-09-26T01:41:32.473Z,0
2017-09-26T01:42:13.003Z,0
2017-09-26T01:42:53.527Z,0
2017-09-26T01:43:34.061Z,0
2017-09-26T01:44:14.600Z,0
2017-09-26T01:44:55.135Z,0
2017-09-26T01:45:35.676Z,0
2017-09-26T01:46:16.207Z,0
2017-09-26T01:46:56.734Z,0
2017-09-26T01:47:37.275Z,0
2017-09-26T01:48:17.888Z,0
2017-09-26T01:48:58.425Z,0
2017-09-26T01:49:38.951Z,0
2017-09-26T01:50:19.484Z,0
2017-09-26T01:51:00.022Z,0
2017-09-26T01:51:40.538Z,0
2017-09-26T01:52:21.070Z,0
2017-09-26T01:53:01.607Z,0
2017-09-26T01:53:42.149Z,0
2017-09-26T01:54:22.690Z,0
2017-09-26T01:55:03.221Z,0
2017-09-26T01:55:43.743Z,0
2017-09-26T01:56:24.268Z,0
2017-09-26T01:57:04.803Z,0
2017-09-26T01:57:45.340Z,0
2017-09-26T01:58:25.877Z,0
2017-09-26T01:59:06.393Z,0
2017-09-26T01:59:46.926Z,0
2017-09-26T02:00:27.471Z,0
2017-09-26T02:01:08.026Z,0
2017-09-26T02:01:48.577Z,0
2017-09-26T02:02:29.103Z,0
2017-09-26T02:03:09.626Z,0
2017-09-26T02:03:50.161Z,0
2017-09-26T02:04:30.699Z,0
2017-09-26T02:05:11.254Z,0
2017-09-26T02:05:51.781Z,0
2017-09-26T02:06:32.295Z,0
2017-09-26T02:07:12.830Z,0
2017-09-26T02:07:53.354Z,0
2017-09-26T02:08:33.908Z,0
2017-09-26T02:09:14.402Z,0
2017-09-26T02:09:54.931Z,0
2017-09-26T02:10:35.448Z,0
2017-09-26T02:11:16.001Z,0
2017-09-26T02:11:56.536Z,0
2017-09-26T02:12:37.045Z,0
2017-09-26T02:13:17.577Z,0
2017-09-26T02:13:58.106Z,0
2017-09-26T02:14:38.632Z,0
2017-09-26T02:15:19.151Z,0
2017-09-26T02:15:59.687Z,0
2017-09-26T02:16:40.221Z,0
2017-09-26T02:17:20.765Z,0
2017-09-26T02:18:01.287Z,0
2017-09-26T02:18:41.824Z,0
2017-09-26T02:19:22.360Z,0
2017-09-26T02:20:02.894Z,0
2017-09-26T02:20:43.419Z,0
2017-09-26T02:21:23.941Z,0
2017-09-26T02:22:04.513Z,0
2017-09-26T02:22:45.029Z,0
2017-09-26T02:23:25.549Z,0
2017-09-26T02:24:06.058Z,0
2017-09-26T02:24:46.583Z,0
2017-09-26T02:25:27.105Z,0
2017-09-26T02:26:07.645Z,0
2017-09-26T02:26:48.164Z,0
2017-09-26T02:27:28.685Z,0
2017-09-26T02:28:09.203Z,0
2017-09-26T02:28:49.757Z,0
2017-09-26T02:29:30.271Z,0
2017-09-26T02:30:10.788Z,0
2017-09-26T02:30:51.318Z,0
2017-09-26T02:31:31.850Z,0
2017-09-26T02:32:12.357Z,0
2017-09-26T02:32:52.877Z,0
2017-09-26T02:33:33.400Z,0
2017-09-26T02:34:13.928Z,0
2017-09-26T02:34:54.439Z,0
2017-09-26T02:35:34.966Z,0
2017-09-26T02:36:15.498Z,0
2017-09-26T02:36:56.027Z,0
2017-09-26T02:37:36.561Z,0
2017-09-26T02:38:17.091Z,0
2017-09-26T02:38:57.621Z,0
2017-09-26T02:39:38.160Z,0
2017-09-26T02:40:18.713Z,0
2017-09-26T02:40:59.251Z,0
2017-09-26T02:41:39.769Z,0
2017-09-26T02:42:20.293Z,0
2017-09-26T02:43:00.821Z,0
2017-09-26T02:43:41.360Z,0
2017-09-26T02:44:21.901Z,0
2017-09-26T02:45:02.434Z,0
2017-09-26T02:45:42.947Z,0
2017-09-26T02:46:23.481Z,0
2017-09-26T02:47:04.003Z,0
2017-09-26T02:47:44.540Z,0
2017-09-26T02:48:25.070Z,0
2017-09-26T02:49:05.600Z,0
2017-09-26T02:49:46.176Z,0
2017-09-26T02:50:26.725Z,0
2017-09-26T02:51:07.243Z,0
2017-09-26T02:51:47.776Z,0
2017-09-26T02:52:28.315Z,0
2017-09-26T02:53:08.857Z,0
2017-09-26T02:53:49.381Z,0
2017-09-26T02:54:29.924Z,0
2017-09-26T02:55:10.433Z,0
2017-09-26T02:55:51.069Z,0
2017-09-26T02:56:31.585Z,0
2017-09-26T02:57:12.117Z,0
2017-09-26T02:57:52.628Z,0
2017-09-26T02:58:33.163Z,0
2017-09-26T02:59:13.691Z,0
2017-09-26T02:59:54.219Z,0
2017-09-26T03:00:34.760Z,0
2017-09-26T03:01:15.271Z,0
2017-09-26T03:01:55.814Z,0
2017-09-26T03:02:36.352Z,0
2017-09-26T03:03:16.886Z,0
2017-09-26T03:03:57.413Z,0
2017-09-26T03:04:37.948Z,0
2017-09-26T03:05:18.474Z,0
2017-09-26T03:05:59.002Z,0
2017-09-26T03:06:39.551Z,0
2017-09-26T03:07:20.096Z,0
2017-09-26T03:08:00.629Z,0
2017-09-26T03:08:41.166Z,0
2017-09-26T03:09:21.694Z,0
2017-09-26T03:10:02.236Z,0
2017-09-26T03:10:42.760Z,0
2017-09-26T03:11:23.291Z,0
2017-09-26T03:12:03.835Z,0
2017-09-26T03:12:44.344Z,0
2017-09-26T03:13:24.902Z,0
2017-09-26T03:14:05.446Z,0
2017-09-26T03:14:45.985Z,0
2017-09-26T03:15:26.516Z,0
2017-09-26T03:16:07.021Z,0
2017-09-26T03:16:47.547Z,0
2017-09-26T03:17:28.072Z,0
2017-09-26T03:18:08.594Z,0
2017-09-26T03:18:49.141Z,0
2017-09-26T03:19:29.650Z,0
2017-09-26T03:20:10.180Z,0
2017-09-26T03:20:50.713Z,0
2017-09-26T03:21:31.243Z,0
2017-09-26T03:22:11.805Z,0
2017-09-26T03:22:53.053Z,0
2017-09-26T03:23:33.765Z,0
2017-09-26T03:24:14.284Z,0
2017-09-26T03:24:54.781Z,0
2017-09-26T03:25:35.280Z,0
2017-09-26T03:26:15.899Z,0
2017-09-26T03:26:56.966Z,0
2017-09-26T03:27:38.204Z,0
2017-09-26T03:28:18.846Z,0
2017-09-26T03:28:59.365Z,0
2017-09-26T03:29:39.886Z,0
2017-09-26T03:30:20.389Z,0
2017-09-26T03:31:00.921Z,0
2017-09-26T03:31:41.467Z,0
2017-09-26T03:32:21.933Z,0
2017-09-26T03:33:02.485Z,0
2017-09-26T03:33:43.003Z,0
2017-09-26T03:34:23.516Z,0
2017-09-26T03:35:04.005Z,0
2017-09-26T03:35:44.549Z,0
2017-09-26T03:36:25.014Z,0
2017-09-26T03:37:05.523Z,0
2017-09-26T03:37:46.101Z,0
2017-09-26T03:38:26.594Z,0
2017-09-26T03:39:07.106Z,0
2017-09-26T03:39:47.606Z,0
2017-09-26T03:40:28.107Z,0
2017-09-26T03:41:08.652Z,0
2017-09-26T03:41:49.142Z,0
2017-09-26T03:42:29.645Z,0
2017-09-26T03:43:10.138Z,0
2017-09-26T03:43:50.630Z,0
2017-09-26T03:44:31.144Z,0
2017-09-26T03:45:11.679Z,0
2017-09-26T03:45:52.181Z,0
2017-09-26T03:46:32.663Z,0
2017-09-26T03:47:13.183Z,0
2017-09-26T03:47:53.696Z,0
2017-09-26T03:48:34.204Z,0
2017-09-26T03:49:14.692Z,0
2017-09-26T03:49:55.193Z,0
2017-09-26T03:50:35.713Z,0
2017-09-26T03:51:16.225Z,0
2017-09-26T03:51:56.735Z,0
2017-09-26T03:52:37.223Z,0
2017-09-26T03:53:17.758Z,0
2017-09-26T03:53:58.232Z,0
2017-09-26T03:54:38.746Z,0
2017-09-26T03:55:19.262Z,0
2017-09-26T03:55:59.769Z,0
2017-09-26T03:56:40.292Z,0
2017-09-26T03:57:20.779Z,0
2017-09-26T03:58:01.293Z,0
2017-09-26T03:58:41.830Z,0
2017-09-26T03:59:22.295Z,0
2017-09-26T04:00:02.852Z,0
2017-09-26T04:00:43.361Z,0
2017-09-26T04:01:23.875Z,0
2017-09-26T04:02:04.390Z,0
2017-09-26T04:02:45.013Z,0
2017-09-26T04:03:25.653Z,0
2017-09-26T04:04:06.161Z,0
2017-09-26T04:04:46.651Z,0
2017-09-26T04:05:27.139Z,0
2017-09-26T04:06:08.016Z,0
2017-09-26T04:06:48.513Z,0
2017-09-26T04:07:29.028Z,0
2017-09-26T04:08:09.515Z,0
2017-09-26T04:08:50.121Z,0
2017-09-26T04:09:30.707Z,0
2017-09-26T04:10:11.250Z,0
2017-09-26T04:10:51.793Z,0
2017-09-26T04:11:32.330Z,0
2017-09-26T04:12:12.868Z,0
2017-09-26T04:12:53.399Z,0
2017-09-26T04:13:33.932Z,0
2017-09-26T04:14:14.466Z,0
2017-09-26T04:14:55.015Z,0
2017-09-26T04:15:35.555Z,0
2017-09-26T04:16:16.089Z,0
2017-09-26T04:16:56.622Z,0
2017-09-26T04:17:37.150Z,0
2017-09-26T04:18:17.664Z,0
2017-09-26T04:18:58.208Z,0
2017-09-26T04:19:40.395Z,0
2017-09-26T04:20:20.931Z,0
2017-09-26T04:21:01.441Z,0
2017-09-26T04:21:42.030Z,0
2017-09-26T04:22:22.542Z,0
2017-09-26T04:23:03.114Z,0
2017-09-26T04:23:43.639Z,0
2017-09-26T04:24:24.149Z,0
2017-09-26T04:25:04.680Z,0
2017-09-26T04:25:45.182Z,0
2017-09-26T04:26:25.706Z,0
2017-09-26T04:27:06.254Z,0
2017-09-26T04:27:46.726Z,0
2017-09-26T04:28:27.282Z,0
2017-09-26T04:29:07.777Z,0
2017-09-26T04:29:48.299Z,0
2017-09-26T04:30:28.866Z,0
2017-09-26T04:31:09.413Z,0
2017-09-26T04:31:49.881Z,0
2017-09-26T04:32:30.355Z,0
2017-09-26T04:33:10.990Z,0
2017-09-26T04:33:51.489Z,0
2017-09-26T04:34:32.757Z,0
2017-09-26T04:35:13.284Z,0
2017-09-26T04:35:53.839Z,0
2017-09-26T04:36:34.364Z,0
2017-09-26T04:37:14.889Z,0
2017-09-26T04:37:55.419Z,0
2017-09-26T04:38:36.534Z,0
2017-09-26T04:39:17.096Z,0
2017-09-26T04:39:57.634Z,0
2017-09-26T04:40:38.176Z,0
2017-09-26T04:41:19.634Z,0
2017-09-26T04:42:01.766Z,0
2017-09-26T04:42:43.842Z,0
2017-09-26T04:43:25.998Z,0
2017-09-26T04:44:08.189Z,0
2017-09-26T04:44:49.035Z,0
2017-09-26T04:45:29.576Z,0
2017-09-26T04:46:10.075Z,0
2017-09-26T04:46:50.613Z,0
2017-09-26T04:47:31.143Z,0
2017-09-26T04:48:11.662Z,0
2017-09-26T04:48:52.198Z,0
2017-09-26T04:49:32.725Z,0
2017-09-26T04:50:13.277Z,0
2017-09-26T04:50:53.812Z,0
2017-09-26T04:51:34.416Z,0
2017-09-26T04:52:14.913Z,0
2017-09-26T04:52:55.450Z,0
2017-09-26T04:53:36.002Z,0
2017-09-26T04:54:16.528Z,0
2017-09-26T04:54:57.052Z,0
2017-09-26T04:55:37.579Z,0
2017-09-26T04:56:18.099Z,0
2017-09-26T04:56:58.634Z,0
2017-09-26T04:57:39.164Z,0
2017-09-26T04:58:19.699Z,0
2017-09-26T04:59:00.229Z,0
2017-09-26T04:59:40.765Z,0
2017-09-26T05:00:21.303Z,0
2017-09-26T05:01:01.838Z,0
2017-09-26T05:01:42.377Z,0
2017-09-26T05:02:22.913Z,0
2017-09-26T05:03:03.451Z,4
2017-09-26T05:03:43.991Z,4
2017-09-26T05:04:24.500Z,4
2017-09-26T05:05:05.009Z,0
2017-09-26T05:05:45.522Z,4
2017-09-26T05:06:26.008Z,4
2017-09-26T05:07:06.531Z,4
2017-09-26T05:07:47.036Z,4
2017-09-26T05:08:27.524Z,4
2017-09-26T05:09:08.036Z,8
2017-09-26T05:09:48.608Z,4
2017-09-26T05:10:29.185Z,8
2017-09-26T05:11:09.713Z,8
2017-09-26T05:11:50.254Z,8
2017-09-26T05:12:30.749Z,12
2017-09-26T05:13:11.263Z,8
2017-09-26T05:13:51.777Z,12
2017-09-26T05:14:32.309Z,12
2017-09-26T05:15:12.845Z,16
2017-09-26T05:15:53.383Z,16
2017-09-26T05:16:33.920Z,16
2017-09-26T05:17:14.468Z,20
2017-09-26T05:17:54.984Z,24
2017-09-26T05:18:35.499Z,24
2017-09-26T05:19:15.973Z,24
2017-09-26T05:19:56.479Z,24
2017-09-26T05:20:36.964Z,32
2017-09-26T05:21:17.451Z,32
2017-09-26T05:21:57.951Z,32
2017-09-26T05:22:38.472Z,32
2017-09-26T05:23:18.979Z,40
2017-09-26T05:23:59.474Z,40
2017-09-26T05:24:39.989Z,44
2017-09-26T05:25:20.454Z,44
2017-09-26T05:26:00.936Z,48
2017-09-26T05:26:41.435Z,52
2017-09-26T05:27:21.938Z,52
2017-09-26T05:28:02.450Z,56
2017-09-26T05:28:43.116Z,60
2017-09-26T05:29:23.546Z,64
2017-09-26T05:30:04.026Z,68
2017-09-26T05:30:44.538Z,72
2017-09-26T05:31:25.100Z,72
2017-09-26T05:32:05.550Z,80
2017-09-26T05:32:46.073Z,88
2017-09-26T05:33:26.627Z,92
2017-09-26T05:34:07.152Z,96
2017-09-26T05:34:47.690Z,104
2017-09-26T05:35:28.294Z,112
2017-09-26T05:36:08.887Z,116
2017-09-26T05:36:49.386Z,124
2017-09-26T05:37:29.890Z,128
2017-09-26T05:38:10.410Z,136
2017-09-26T05:38:51.189Z,148
2017-09-26T05:39:31.733Z,156
2017-09-26T05:40:12.282Z,168
2017-09-26T05:40:52.783Z,176
2017-09-26T05:41:33.326Z,192
2017-09-26T05:42:13.863Z,200
2017-09-26T05:42:54.421Z,216
2017-09-26T05:43:34.960Z,232
2017-09-26T05:44:15.463Z,248
2017-09-26T05:44:55.975Z,260
2017-09-26T05:45:36.491Z,276
2017-09-26T05:46:17.080Z,288
2017-09-26T05:46:57.587Z,296
2017-09-26T05:47:38.083Z,304
2017-09-26T05:48:18.572Z,308
2017-09-26T05:48:59.083Z,312
2017-09-26T05:49:39.577Z,316
2017-09-26T05:50:20.087Z,320
2017-09-26T05:51:00.583Z,328
2017-09-26T05:51:41.106Z,340
2017-09-26T05:52:21.628Z,348
2017-09-26T05:53:02.163Z,368
2017-09-26T05:53:42.751Z,388
2017-09-26T05:54:23.260Z,408
2017-09-26T05:55:03.814Z,424
2017-09-26T05:55:44.350Z,440
2017-09-26T05:56:24.855Z,456
2017-09-26T05:57:05.348Z,472
2017-09-26T05:57:45.862Z,488
2017-09-26T05:58:26.351Z,496
2017-09-26T05:59:06.907Z,508
2017-09-26T05:59:47.458Z,512
2017-09-26T06:00:27.982Z,524
2017-09-26T06:01:08.633Z,536
2017-09-26T06:01:49.191Z,536
2017-09-26T06:02:29.751Z,544
2017-09-26T06:03:10.338Z,548
2017-09-26T06:03:50.863Z,560
2017-09-26T06:04:31.368Z,568
2017-09-26T06:05:11.858Z,580
2017-09-26T06:05:52.383Z,584
2017-09-26T06:06:32.874Z,592
2017-09-26T06:07:13.377Z,604
2017-09-26T06:07:53.860Z,624
2017-09-26T06:08:34.360Z,640
2017-09-26T06:09:14.864Z,660
2017-09-26T06:09:55.386Z,676
2017-09-26T06:10:35.961Z,688
2017-09-26T06:11:16.495Z,696
2017-09-26T06:11:56.982Z,708
2017-09-26T06:12:37.511Z,724
2017-09-26T06:13:18.022Z,736
2017-09-26T06:13:58.519Z,752
2017-09-26T06:14:39.046Z,772
2017-09-26T06:15:19.536Z,796
2017-09-26T06:16:00.084Z,820
2017-09-26T06:16:40.610Z,840
2017-09-26T06:17:21.194Z,864
2017-09-26T06:18:01.735Z,884
2017-09-26T06:18:42.283Z,904
2017-09-26T06:19:22.772Z,924
2017-09-26T06:20:03.361Z,944
2017-09-26T06:20:43.926Z,960
2017-09-26T06:21:24.465Z,976
2017-09-26T06:22:04.933Z,996
2017-09-26T06:22:45.445Z,1012
2017-09-26T06:23:25.924Z,1032
2017-09-26T06:24:06.436Z,1048
2017-09-26T06:24:46.937Z,1068
2017-09-26T06:25:27.466Z,1084
2017-09-26T06:26:07.999Z,1112
2017-09-26T06:26:48.482Z,1136
2017-09-26T06:27:28.966Z,1168
2017-09-26T06:28:09.496Z,1196
2017-09-26T06:28:49.993Z,1224
2017-09-26T06:29:30.520Z,1256
2017-09-26T06:30:11.043Z,1296
2017-09-26T06:30:51.541Z,1328
2017-09-26T06:31:32.037Z,1364
2017-09-26T06:32:12.643Z,1400
2017-09-26T06:32:53.189Z,1436
2017-09-26T06:33:33.721Z,1472
2017-09-26T06:34:14.260Z,1512
2017-09-26T06:34:54.786Z,1548
2017-09-26T06:35:35.321Z,1596
2017-09-26T06:36:15.846Z,1640
2017-09-26T06:36:56.331Z,1676
2017-09-26T06:37:36.838Z,1704
2017-09-26T06:38:17.325Z,1728
2017-09-26T06:38:57.835Z,1736
2017-09-26T06:39:38.328Z,1744
2017-09-26T06:40:18.804Z,1740
2017-09-26T06:40:59.298Z,1732
2017-09-26T06:41:39.854Z,1716
2017-09-26T06:42:20.470Z,1692
2017-09-26T06:43:00.986Z,1672
2017-09-26T06:43:41.528Z,1660
2017-09-26T06:44:22.046Z,1644
2017-09-26T06:45:02.570Z,1640
2017-09-26T06:45:43.098Z,1644
2017-09-26T06:46:23.666Z,1648
2017-09-26T06:47:04.176Z,1656
2017-09-26T06:47:44.649Z,1672
2017-09-26T06:48:25.253Z,1680
2017-09-26T06:49:05.764Z,1684
2017-09-26T06:49:46.282Z,1684
2017-09-26T06:50:26.817Z,1684
2017-09-26T06:51:07.351Z,1676
2017-09-26T06:51:47.875Z,1680
2017-09-26T06:52:28.412Z,1680
2017-09-26T06:53:08.925Z,1692
2017-09-26T06:53:49.453Z,1708
2017-09-26T06:54:29.951Z,1724
2017-09-26T06:55:10.457Z,1740
2017-09-26T06:55:50.977Z,1760
2017-09-26T06:56:31.513Z,1784
2017-09-26T06:57:12.045Z,1812
2017-09-26T06:57:52.572Z,1852
2017-09-26T06:58:33.147Z,1892
2017-09-26T06:59:13.790Z,1932
2017-09-26T06:59:54.318Z,1972
2017-09-26T07:00:34.859Z,2012
2017-09-26T07:01:15.339Z,2060
2017-09-26T07:01:55.868Z,2116
2017-09-26T07:02:36.397Z,2172
2017-09-26T07:03:16.925Z,2172
2017-09-26T07:03:57.461Z,2176
2017-09-26T07:04:38.001Z,2196
2017-09-26T07:05:18.543Z,2244
2017-09-26T07:05:59.092Z,2280
2017-09-26T07:06:39.677Z,2296
2017-09-26T07:07:20.210Z,2308
2017-09-26T07:08:00.739Z,2364
2017-09-26T07:08:41.282Z,2412
2017-09-26T07:09:21.784Z,2456
2017-09-26T07:10:02.311Z,2620
2017-09-26T07:10:42.849Z,2736
2017-09-26T07:11:23.415Z,2868
2017-09-26T07:12:03.957Z,3056
2017-09-26T07:12:44.499Z,3184
2017-09-26T07:13:25.011Z,3224
2017-09-26T07:14:05.531Z,3220
2017-09-26T07:14:46.061Z,3300
2017-09-26T07:15:26.599Z,3496
2017-09-26T07:16:07.114Z,3640
2017-09-26T07:16:47.648Z,3716
2017-09-26T07:17:28.147Z,3756
2017-09-26T07:18:08.672Z,3776
2017-09-26T07:18:49.201Z,3864
2017-09-26T07:19:29.720Z,4008
2017-09-26T07:20:10.252Z,4172
2017-09-26T07:20:50.775Z,4308
2017-09-26T07:21:31.288Z,4432
2017-09-26T07:22:11.811Z,4572
2017-09-26T07:22:52.304Z,4708
2017-09-26T07:23:32.809Z,4808
2017-09-26T07:24:13.392Z,4888
2017-09-26T07:24:54.025Z,4964
2017-09-26T07:25:34.597Z,4972
2017-09-26T07:26:15.095Z,5028
2017-09-26T07:26:55.563Z,5048
2017-09-26T07:27:36.113Z,5020
2017-09-26T07:28:16.589Z,5004
2017-09-26T07:28:57.119Z,4996
2017-09-26T07:29:37.589Z,5072
2017-09-26T07:30:18.111Z,5036
2017-09-26T07:30:58.660Z,4928
2017-09-26T07:31:39.199Z,4812
2017-09-26T07:32:19.755Z,4692
2017-09-26T07:33:00.331Z,4540
2017-09-26T07:33:40.834Z,4356
2017-09-26T07:34:21.417Z,4264
2017-09-26T07:35:01.962Z,4236
2017-09-26T07:35:42.502Z,4140
2017-09-26T07:36:23.016Z,4044
2017-09-26T07:37:03.519Z,4036
2017-09-26T07:37:44.071Z,3968
2017-09-26T07:38:24.568Z,3920
2017-09-26T07:39:05.063Z,3876
2017-09-26T07:39:45.638Z,3864
2017-09-26T07:40:26.167Z,3796
2017-09-26T07:41:06.692Z,3704
2017-09-26T07:41:47.261Z,3640
2017-09-26T07:42:27.781Z,3680
2017-09-26T07:43:08.348Z,3672
2017-09-26T07:43:48.828Z,3644
2017-09-26T07:44:29.344Z,3640
2017-09-26T07:45:09.871Z,3628
2017-09-26T07:45:50.405Z,3508
2017-09-26T07:46:30.930Z,3444
2017-09-26T07:47:11.467Z,3448
2017-09-26T07:47:51.998Z,3420
2017-09-26T07:48:32.534Z,3396
2017-09-26T07:49:13.078Z,3400
2017-09-26T07:49:53.599Z,3420
2017-09-26T07:50:34.135Z,3416
2017-09-26T07:51:14.682Z,3400
2017-09-26T07:51:55.248Z,3440
2017-09-26T07:52:35.780Z,3556
2017-09-26T07:53:16.333Z,3604
2017-09-26T07:53:56.888Z,3604
2017-09-26T07:54:37.470Z,3644
2017-09-26T07:55:18.001Z,3724
2017-09-26T07:55:58.537Z,3800
2017-09-26T07:56:39.102Z,3856
2017-09-26T07:57:19.639Z,3912
2017-09-26T07:58:00.184Z,3944
2017-09-26T07:58:40.701Z,4000
2017-09-26T07:59:21.247Z,4092
2017-09-26T08:00:01.790Z,4192
2017-09-26T08:00:42.315Z,4236
2017-09-26T08:01:22.896Z,4320
2017-09-26T08:02:03.415Z,4356
2017-09-26T08:02:43.947Z,6452
2017-09-26T08:03:24.497Z,8468
2017-09-26T08:04:05.060Z,8120
2017-09-26T08:04:45.587Z,5752
2017-09-26T08:05:26.140Z,4764
2017-09-26T08:06:06.707Z,4760
2017-09-26T08:06:47.172Z,4820
2017-09-26T08:07:27.703Z,5088
2017-09-26T08:08:08.239Z,5560
2017-09-26T08:08:48.762Z,5556
2017-09-26T08:09:29.308Z,5520
2017-09-26T08:10:09.808Z,5496
2017-09-26T08:10:50.329Z,5428
2017-09-26T08:11:30.857Z,5360
2017-09-26T08:12:11.373Z,5356
2017-09-26T08:12:51.913Z,5356
2017-09-26T08:13:32.448Z,5284
2017-09-26T08:14:12.991Z,5192
2017-09-26T08:14:53.533Z,5176
2017-09-26T08:15:34.064Z,6056
2017-09-26T08:16:14.596Z,7560
2017-09-26T08:16:55.125Z,7856
2017-09-26T08:17:35.662Z,6260
2017-09-26T08:18:16.198Z,5888
2017-09-26T08:18:56.736Z,5696
2017-09-26T08:19:37.309Z,5560
2017-09-26T08:20:17.859Z,5424
2017-09-26T08:20:58.404Z,5308
2017-09-26T08:21:38.951Z,5248
2017-09-26T08:22:19.492Z,5256
2017-09-26T08:23:00.029Z,5212
2017-09-26T08:23:40.567Z,5080
2017-09-26T08:24:21.089Z,4940
2017-09-26T08:25:01.625Z,4784
2017-09-26T08:25:42.165Z,4660
2017-09-26T08:26:22.710Z,4728
2017-09-26T08:27:03.256Z,5424
2017-09-26T08:27:43.798Z,6116
2017-09-26T08:28:24.322Z,9584
2017-09-26T08:29:04.853Z,14692
2017-09-26T08:29:45.395Z,15776
2017-09-26T08:30:27.022Z,9848
2017-09-26T08:31:07.821Z,5972
2017-09-26T08:31:48.343Z,4700
2017-09-26T08:32:28.896Z,4324
2017-09-26T08:33:09.440Z,4284
2017-09-26T08:33:49.976Z,4332
2017-09-26T08:34:30.509Z,4380
2017-09-26T08:35:11.064Z,4424
2017-09-26T08:35:51.605Z,4456
2017-09-26T08:36:32.127Z,4452
2017-09-26T08:37:12.666Z,4476
2017-09-26T08:37:53.205Z,4508
2017-09-26T08:38:33.758Z,4536
2017-09-26T08:39:14.268Z,4560
2017-09-26T08:39:54.790Z,4584
2017-09-26T08:40:35.472Z,4624
2017-09-26T08:41:15.898Z,5148
2017-09-26T08:41:56.407Z,5252
2017-09-26T08:42:36.946Z,5156
2017-09-26T08:43:17.411Z,4828
2017-09-26T08:43:57.919Z,4760
2017-09-26T08:44:38.435Z,5672
2017-09-26T08:45:18.969Z,6692
2017-09-26T08:45:59.491Z,5432
2017-09-26T08:46:39.998Z,4756
2017-09-26T08:47:20.508Z,4772
2017-09-26T08:48:00.998Z,4864
2017-09-26T08:48:41.506Z,5216
2017-09-26T08:49:22.021Z,5116
2017-09-26T08:50:02.518Z,5244
2017-09-26T08:50:43.013Z,5324
2017-09-26T08:51:23.538Z,5436
2017-09-26T08:52:04.035Z,6988
2017-09-26T08:52:44.561Z,9296
2017-09-26T08:53:25.033Z,9560
2017-09-26T08:54:05.508Z,7784
2017-09-26T08:54:46.011Z,6068
2017-09-26T08:55:26.534Z,6316
2017-09-26T08:56:07.063Z,6840
2017-09-26T08:56:47.600Z,7724
2017-09-26T08:57:28.116Z,7568
2017-09-26T08:58:08.668Z,7064
2017-09-26T08:58:49.196Z,7488
2017-09-26T08:59:29.748Z,18336
2017-09-26T09:00:10.256Z,30432
2017-09-26T09:00:50.795Z,36352
2017-09-26T09:01:31.335Z,36128
2017-09-26T09:02:11.868Z,37152
2017-09-26T09:02:52.401Z,36864
2017-09-26T09:03:32.924Z,36448
2017-09-26T09:04:13.459Z,37408
2017-09-26T09:04:53.965Z,37440
2017-09-26T09:05:34.521Z,37152
2017-09-26T09:06:15.002Z,37024
2017-09-26T09:06:55.514Z,37568
2017-09-26T09:07:35.987Z,37376
2017-09-26T09:08:16.482Z,37472
2017-09-26T09:08:56.976Z,37184
2017-09-26T09:09:37.476Z,37952
2017-09-26T09:10:17.966Z,37920
2017-09-26T09:10:58.451Z,39488
2017-09-26T09:11:38.930Z,39680
2017-09-26T09:12:19.429Z,40416
2017-09-26T09:12:59.943Z,39776
2017-09-26T09:13:40.425Z,38304
2017-09-26T09:14:20.957Z,39104
2017-09-26T09:15:01.423Z,39808
2017-09-26T09:15:41.958Z,40352
2017-09-26T09:16:22.494Z,40352
2017-09-26T09:17:02.996Z,40224
2017-09-26T09:17:43.520Z,40384
2017-09-26T09:18:24.007Z,40832
2017-09-26T09:19:04.539Z,41536
2017-09-26T09:19:45.063Z,41376
2017-09-26T09:20:25.598Z,42944
2017-09-26T09:21:06.122Z,43040
2017-09-26T09:21:46.672Z,41952
2017-09-26T09:22:27.263Z,40672
2017-09-26T09:23:07.745Z,41472
2017-09-26T09:23:48.276Z,41120
2017-09-26T09:24:28.828Z,39296
2017-09-26T09:25:09.350Z,38944
2017-09-26T09:25:49.884Z,39616
2017-09-26T09:26:30.459Z,40768
2017-09-26T09:27:10.958Z,41536
2017-09-26T09:27:51.494Z,42240
2017-09-26T09:28:32.020Z,41856
2017-09-26T09:29:12.535Z,43328
2017-09-26T09:29:53.043Z,43360
2017-09-26T09:30:33.587Z,42880
2017-09-26T09:31:14.119Z,42336
2017-09-26T09:31:54.631Z,41792
2017-09-26T09:32:35.111Z,41024